createdAt,value
2019-02-22T00:01:08.599Z,92.60
2019-02-22T00:03:37.666Z,92.40
2019-02-22T00:06:06.721Z,92.40
2019-02-22T00:08:35.793Z,92.70
2019-02-22T00:11:04.844Z,92.90
2019-02-22T00:13:33.913Z,93.10
2019-02-22T00:16:02.962Z,93.30
2019-02-22T00:18:32.033Z,93.50
2019-02-22T00:21:01.094Z,93.50
2019-02-22T00:23:30.157Z,93.50
2019-02-22T00:25:59.227Z,93.50
2019-02-22T00:28:28.449Z,93.90
2019-02-22T00:30:57.503Z,93.90
2019-02-22T00:33:26.557Z,93.90
2019-02-22T00:35:55.646Z,94.00
2019-02-22T00:38:27.056Z,94.10
2019-02-22T00:40:55.525Z,93.90
2019-02-22T00:43:24.597Z,94.10
2019-02-22T00:45:53.661Z,94.10
2019-02-22T00:48:22.725Z,94.30
2019-02-22T00:50:51.784Z,94.50
2019-02-22T00:53:20.845Z,94.50
2019-02-22T00:55:49.905Z,94.60
2019-02-22T00:58:18.967Z,94.80
2019-02-22T01:00:48.010Z,94.70
2019-02-22T01:03:17.069Z,94.70
2019-02-22T01:05:46.139Z,94.70
2019-02-22T01:08:15.223Z,94.80
2019-02-22T01:10:44.244Z,94.90
2019-02-22T01:13:13.302Z,94.90
2019-02-22T01:15:42.360Z,95.20
2019-02-22T01:18:11.432Z,95.00
2019-02-22T01:20:40.571Z,94.90
2019-02-22T01:23:09.607Z,94.90
2019-02-22T01:25:38.647Z,94.90
2019-02-22T01:28:07.712Z,94.80
2019-02-22T01:30:38.302Z,94.90
2019-02-22T01:33:07.372Z,95.00
2019-02-22T01:35:36.434Z,95.00
2019-02-22T01:38:05.504Z,95.10
2019-02-22T01:40:43.255Z,95.10
2019-02-22T01:43:05.356Z,95.10
2019-02-22T01:45:34.482Z,95.10
2019-02-22T01:48:03.542Z,95.20
2019-02-22T01:50:32.662Z,95.10
2019-02-22T01:53:01.745Z,95.00
2019-02-22T01:55:30.806Z,94.90
2019-02-22T01:57:59.852Z,94.90
2019-02-22T02:00:28.906Z,94.80
2019-02-22T02:02:57.971Z,94.80
2019-02-22T02:05:27.040Z,94.80
2019-02-22T02:07:56.124Z,94.90
2019-02-22T02:10:25.166Z,95.00
2019-02-22T02:12:54.242Z,95.20
2019-02-22T02:15:23.281Z,95.10
2019-02-22T02:17:52.340Z,95.00
2019-02-22T02:20:21.439Z,95.00
2019-02-22T02:22:50.565Z,95.00
2019-02-22T02:25:19.611Z,95.10
2019-02-22T02:27:48.679Z,95.00
2019-02-22T02:30:17.735Z,94.80
2019-02-22T02:32:46.840Z,94.80
2019-02-22T02:35:15.961Z,94.80
2019-02-22T02:37:45.080Z,94.90
2019-02-22T02:40:14.200Z,94.90
2019-02-22T02:42:43.253Z,95.00
2019-02-22T02:45:12.457Z,95.00
2019-02-22T02:47:42.113Z,95.10
2019-02-22T02:50:14.257Z,95.20
2019-02-22T02:52:43.331Z,95.20
2019-02-22T02:55:30.574Z,95.30
2019-02-22T02:57:59.701Z,95.20
2019-02-22T03:00:28.760Z,95.20
2019-02-22T03:02:57.875Z,95.00
2019-02-22T03:05:37.584Z,95.20
2019-02-22T03:08:06.672Z,95.10
2019-02-22T03:10:35.714Z,95.00
2019-02-22T03:13:04.837Z,95.00
2019-02-22T03:15:33.908Z,95.00
2019-02-22T03:18:02.948Z,95.30
2019-02-22T03:20:32.042Z,95.60
2019-02-22T03:23:01.162Z,95.40
2019-02-22T03:25:30.218Z,95.50
2019-02-22T03:27:59.270Z,95.50
2019-02-22T03:30:28.317Z,95.60
2019-02-22T03:32:57.416Z,95.60
2019-02-22T03:35:26.459Z,95.80
2019-02-22T03:37:55.525Z,96.00
2019-02-22T03:40:24.660Z,96.00
2019-02-22T03:42:53.704Z,96.10
2019-02-22T03:45:22.777Z,96.00
2019-02-22T03:47:51.897Z,96.00
2019-02-22T03:50:20.955Z,96.20
2019-02-22T03:52:58.380Z,96.20
2019-02-22T03:55:27.433Z,96.20
2019-02-22T03:57:56.561Z,96.20
2019-02-22T04:00:25.631Z,96.20
2019-02-22T04:02:54.680Z,96.30
2019-02-22T04:05:23.747Z,96.10
2019-02-22T04:07:52.785Z,96.40
2019-02-22T04:10:21.881Z,96.90
2019-02-22T04:12:51.034Z,96.60
2019-02-22T04:15:20.151Z,96.60
2019-02-22T04:17:49.281Z,96.70
2019-02-22T04:20:18.330Z,96.90
2019-02-22T04:22:47.383Z,97.00
2019-02-22T04:25:16.453Z,97.40
2019-02-22T04:27:45.533Z,97.20
2019-02-22T04:30:14.719Z,97.30
2019-02-22T04:32:43.783Z,97.40
2019-02-22T04:35:12.825Z,97.50
2019-02-22T04:37:41.882Z,97.50
2019-02-22T04:40:30.307Z,97.50
2019-02-22T04:42:59.346Z,97.50
2019-02-22T04:45:28.383Z,97.50
2019-02-22T04:47:57.447Z,97.50
2019-02-22T04:50:26.505Z,97.50
2019-02-22T04:52:55.577Z,97.40
2019-02-22T04:55:24.650Z,97.70
2019-02-22T04:57:53.769Z,97.20
2019-02-22T05:00:22.820Z,97.30
2019-02-22T05:02:51.861Z,97.20
2019-02-22T05:05:20.909Z,97.20
2019-02-22T05:07:49.986Z,97.20
2019-02-22T05:10:19.038Z,97.20
2019-02-22T05:12:48.328Z,97.10
2019-02-22T05:15:17.431Z,97.00
2019-02-22T05:17:46.509Z,97.00
2019-02-22T05:20:15.553Z,97.00
2019-02-22T05:22:44.592Z,97.00
2019-02-22T05:25:13.733Z,96.90
2019-02-22T05:27:42.779Z,96.80
2019-02-22T05:30:12.021Z,96.90
2019-02-22T05:32:41.103Z,96.80
2019-02-22T05:35:10.307Z,96.80
2019-02-22T05:37:39.368Z,96.80
2019-02-22T05:40:08.592Z,96.80
2019-02-22T05:42:37.642Z,96.70
2019-02-22T05:45:07.536Z,96.70
2019-02-22T05:47:36.594Z,96.60
2019-02-22T05:50:06.304Z,96.70
2019-02-22T05:52:35.372Z,96.70
2019-02-22T05:55:04.665Z,96.60
2019-02-22T05:57:33.784Z,96.60
2019-02-22T06:00:02.832Z,97.00
2019-02-22T06:02:34.002Z,96.70
2019-02-22T06:05:02.692Z,96.90
2019-02-22T06:07:31.756Z,96.70
2019-02-22T06:10:00.818Z,96.70
2019-02-22T06:12:34.561Z,96.50
2019-02-22T06:15:00.658Z,96.50
2019-02-22T06:17:29.730Z,96.50
2019-02-22T06:19:58.883Z,96.50
2019-02-22T06:22:29.803Z,96.40
2019-02-22T06:24:58.731Z,96.50
2019-02-22T06:27:27.798Z,96.60
2019-02-22T06:29:56.852Z,96.60
2019-02-22T06:32:25.940Z,96.70
2019-02-22T06:34:54.999Z,96.60
2019-02-22T06:37:24.042Z,96.60
2019-02-22T06:39:53.109Z,96.60
2019-02-22T06:42:22.158Z,96.50
2019-02-22T06:44:51.215Z,96.40
2019-02-22T06:47:22.775Z,96.50
2019-02-22T06:49:51.047Z,96.40
2019-02-22T06:52:20.133Z,96.40
2019-02-22T06:54:49.252Z,96.40
2019-02-22T06:57:18.316Z,96.40
2019-02-22T06:59:47.377Z,96.20
2019-02-22T07:02:16.476Z,96.20
2019-02-22T07:04:45.593Z,96.30
2019-02-22T07:07:14.647Z,96.20
2019-02-22T07:09:43.736Z,96.20
2019-02-22T07:12:14.444Z,96.10
2019-02-22T07:14:43.477Z,96.00
2019-02-22T07:17:12.551Z,95.70
2019-02-22T07:19:41.599Z,95.70
2019-02-22T07:22:10.682Z,95.50
2019-02-22T07:24:39.715Z,95.40
2019-02-22T07:27:08.766Z,95.40
2019-02-22T07:29:37.823Z,95.40
2019-02-22T07:32:06.879Z,95.20
2019-02-22T07:34:35.928Z,95.20
2019-02-22T07:37:05.054Z,95.20
2019-02-22T07:39:34.119Z,95.00
2019-02-22T07:42:03.182Z,94.80
2019-02-22T07:44:32.230Z,94.70
2019-02-22T07:47:01.272Z,94.60
2019-02-22T07:49:30.342Z,94.60
2019-02-22T07:51:59.390Z,94.60
2019-02-22T07:54:28.434Z,94.50
2019-02-22T07:56:57.478Z,94.60
2019-02-22T07:59:26.602Z,94.70
2019-02-22T08:01:55.659Z,94.70
2019-02-22T08:04:24.725Z,94.60
2019-02-22T08:06:53.760Z,94.60
2019-02-22T08:09:22.821Z,94.30
2019-02-22T08:11:51.865Z,94.60
2019-02-22T08:14:20.894Z,93.60
2019-02-22T08:16:49.954Z,93.20
2019-02-22T08:19:19.006Z,93.10
2019-02-22T08:21:48.053Z,93.40
2019-02-22T08:24:17.103Z,93.50
2019-02-22T08:26:46.235Z,93.50
2019-02-22T08:29:15.269Z,93.20
2019-02-22T08:31:44.353Z,93.30
2019-02-22T08:34:13.384Z,93.00
2019-02-22T08:36:42.447Z,92.10
2019-02-22T08:39:11.484Z,92.10
2019-02-22T08:41:40.539Z,92.40
2019-02-22T08:44:09.593Z,92.50
2019-02-22T08:46:38.659Z,92.00
2019-02-22T08:49:07.707Z,92.30
2019-02-22T08:51:36.854Z,92.50
2019-02-22T08:54:05.897Z,92.90
2019-02-22T08:56:34.963Z,93.10
2019-02-22T08:59:04.025Z,93.30
2019-02-22T09:01:35.566Z,93.30
2019-02-22T09:04:03.887Z,93.40
2019-02-22T09:06:32.968Z,93.50
2019-02-22T09:09:02.009Z,93.80
2019-02-22T09:11:31.088Z,93.40
2019-02-22T09:14:00.143Z,93.40
2019-02-22T09:16:29.186Z,93.20
2019-02-22T09:18:58.275Z,93.20
2019-02-22T09:21:27.341Z,93.00
2019-02-22T09:23:56.398Z,92.70
2019-02-22T09:26:25.454Z,92.60
2019-02-22T09:28:55.612Z,92.40
2019-02-22T09:31:24.834Z,91.60
2019-02-22T09:33:53.892Z,91.30
2019-02-22T09:36:22.948Z,91.40
2019-02-22T09:38:52.015Z,91.20
2019-02-22T09:41:21.063Z,90.90
2019-02-22T09:43:55.065Z,90.60
2019-02-22T09:46:20.889Z,90.10
2019-02-22T09:48:49.944Z,90.30
2019-02-22T09:51:18.998Z,89.80
2019-02-22T09:53:48.268Z,90.00
2019-02-22T09:56:17.371Z,90.00
2019-02-22T09:58:46.418Z,89.50
2019-02-22T10:01:15.470Z,89.20
2019-02-22T10:03:44.514Z,89.10
2019-02-22T10:06:13.550Z,88.40
2019-02-22T10:08:42.624Z,87.40
2019-02-22T10:11:11.690Z,88.40
2019-02-22T10:13:40.796Z,88.00
2019-02-22T10:16:09.852Z,88.30
2019-02-22T10:18:38.907Z,88.10
2019-02-22T10:21:07.942Z,87.70
2019-02-22T10:23:37.021Z,88.40
2019-02-22T10:26:06.144Z,88.30
2019-02-22T10:28:35.204Z,87.80
2019-02-22T10:31:04.252Z,88.10
2019-02-22T10:33:36.662Z,89.00
2019-02-22T10:36:04.067Z,89.50
2019-02-22T10:38:35.863Z,89.90
2019-02-22T10:41:04.068Z,89.90
2019-02-22T10:43:33.115Z,90.20
2019-02-22T10:46:02.167Z,89.80
2019-02-22T10:48:31.189Z,89.10
2019-02-22T10:51:00.237Z,89.00
2019-02-22T10:53:28.693Z,90.00
2019-02-22T10:55:57.793Z,90.00
2019-02-22T10:58:26.839Z,89.70
2019-02-22T11:00:55.887Z,88.30
2019-02-22T11:03:24.348Z,87.80
2019-02-22T11:05:53.385Z,87.30
2019-02-22T11:08:22.452Z,87.00
2019-02-22T11:10:51.479Z,86.60
2019-02-22T11:13:21.378Z,86.50
2019-02-22T11:15:50.650Z,84.10
2019-02-22T11:18:19.697Z,83.70
2019-02-22T11:20:48.740Z,84.70
2019-02-22T11:23:17.227Z,83.00
2019-02-22T11:25:46.336Z,83.50
2019-02-22T11:28:14.801Z,84.30
2019-02-22T11:30:43.260Z,85.00
2019-02-22T11:33:11.734Z,85.10
2019-02-22T11:35:40.243Z,83.80
2019-02-22T11:38:08.702Z,84.00
2019-02-22T11:40:37.160Z,83.60
2019-02-22T11:43:05.630Z,83.60
2019-02-22T11:45:34.083Z,82.90
2019-02-22T11:48:09.173Z,83.00
2019-02-22T11:50:32.815Z,83.40
2019-02-22T11:53:01.838Z,83.90
2019-02-22T11:55:30.958Z,83.30
2019-02-22T11:57:59.416Z,83.10
2019-02-22T12:00:28.835Z,83.10
2019-02-22T12:02:57.292Z,83.40
2019-02-22T12:05:26.402Z,83.20
2019-02-22T12:07:54.894Z,83.30
2019-02-22T12:10:23.355Z,83.70
2019-02-22T12:12:52.402Z,83.10
2019-02-22T12:15:20.866Z,83.60
2019-02-22T12:17:49.342Z,84.00
2019-02-22T12:20:18.373Z,83.40
2019-02-22T12:22:47.056Z,83.60
2019-02-22T12:25:15.580Z,83.60
2019-02-22T12:27:44.089Z,83.50
2019-02-22T12:30:16.605Z,83.70
2019-02-22T12:32:45.213Z,83.60
2019-02-22T12:35:13.747Z,83.00
2019-02-22T12:37:42.217Z,81.80
2019-02-22T12:40:12.109Z,82.70
2019-02-22T12:42:40.583Z,82.30
2019-02-22T12:45:11.644Z,82.80
2019-02-22T12:47:40.181Z,83.50
2019-02-22T12:50:10.709Z,83.80
2019-02-22T12:52:39.183Z,84.10
2019-02-22T12:55:08.987Z,83.90
2019-02-22T12:57:37.646Z,81.90
2019-02-22T13:00:09.752Z,82.60
2019-02-22T13:02:38.813Z,82.50
2019-02-22T13:05:10.319Z,82.60
2019-02-22T13:07:38.807Z,83.00
2019-02-22T13:10:08.111Z,82.60
2019-02-22T13:12:36.597Z,83.10
2019-02-22T13:15:14.155Z,83.50
2019-02-22T13:17:38.191Z,83.80
2019-02-22T13:20:08.589Z,84.30
2019-02-22T13:22:37.071Z,84.80
2019-02-22T13:25:10.678Z,84.90
2019-02-22T13:27:39.149Z,85.20
2019-02-22T13:30:10.683Z,85.20
2019-02-22T13:32:39.163Z,85.30
2019-02-22T13:35:10.738Z,84.90
2019-02-22T13:37:38.463Z,85.30
2019-02-22T13:40:17.897Z,85.40
2019-02-22T13:42:46.376Z,85.30
2019-02-22T13:45:26.009Z,84.30
2019-02-22T13:47:45.560Z,84.20
2019-02-22T13:50:18.388Z,84.90
2019-02-22T13:52:47.036Z,85.40
2019-02-22T13:55:15.509Z,85.90
2019-02-22T13:57:44.060Z,86.00
2019-02-22T14:00:15.061Z,85.80
2019-02-22T14:02:43.536Z,85.80
2019-02-22T14:05:11.995Z,85.50
2019-02-22T14:07:42.002Z,85.30
2019-02-22T14:10:10.471Z,85.80
2019-02-22T14:12:39.018Z,84.90
2019-02-22T14:15:08.428Z,84.90
2019-02-22T14:17:36.918Z,84.40
2019-02-22T14:20:07.918Z,85.10
2019-02-22T14:22:36.389Z,85.20
2019-02-22T14:25:05.486Z,84.70
2019-02-22T14:27:34.106Z,83.70
2019-02-22T14:30:02.788Z,84.10
2019-02-22T14:32:31.576Z,84.30
2019-02-22T14:35:00.340Z,84.30
2019-02-22T14:37:29.383Z,84.10
2019-02-22T14:40:03.434Z,84.00
2019-02-22T14:42:28.107Z,83.90
2019-02-22T14:44:56.609Z,83.50
2019-02-22T14:47:25.081Z,84.00
2019-02-22T14:49:53.547Z,84.00
2019-02-22T14:52:22.021Z,84.30
2019-02-22T14:54:50.499Z,84.90
2019-02-22T14:57:18.984Z,83.40
2019-02-22T14:59:47.451Z,83.80
2019-02-22T15:02:15.935Z,83.70
2019-02-22T15:04:44.415Z,83.90
2019-02-22T15:07:12.882Z,83.40
2019-02-22T15:09:41.363Z,83.90
2019-02-22T15:12:11.794Z,84.00
2019-02-22T15:14:40.140Z,84.40
2019-02-22T15:17:16.099Z,83.70
2019-02-22T15:19:44.631Z,83.20
2019-02-22T15:22:13.095Z,83.20
2019-02-22T15:24:41.594Z,83.30
2019-02-22T15:27:10.184Z,83.30
2019-02-22T15:29:38.665Z,83.50
2019-02-22T15:32:07.145Z,83.30
2019-02-22T15:34:35.683Z,83.50
2019-02-22T15:37:04.169Z,83.40
2019-02-22T15:39:32.714Z,83.20
2019-02-22T15:42:01.168Z,83.00
2019-02-22T15:44:29.681Z,82.70
2019-02-22T15:46:58.281Z,82.80
2019-02-22T15:49:26.940Z,82.30
2019-02-22T15:51:55.398Z,82.30
2019-02-22T15:54:23.886Z,82.50
2019-02-22T15:56:52.342Z,82.50
2019-02-22T15:59:21.190Z,82.70
2019-02-22T16:01:55.647Z,82.70
2019-02-22T16:04:30.946Z,82.70
2019-02-22T16:06:59.404Z,82.90
2019-02-22T16:09:27.944Z,83.10
2019-02-22T16:11:56.417Z,83.50
2019-02-22T16:14:24.908Z,83.60
2019-02-22T16:16:53.372Z,83.40
2019-02-22T16:19:21.850Z,83.40
2019-02-22T16:21:50.334Z,83.40
2019-02-22T16:24:18.794Z,83.50
2019-02-22T16:26:47.282Z,83.50
2019-02-22T16:29:15.743Z,84.20
2019-02-22T16:31:44.250Z,83.50
2019-02-22T16:34:12.713Z,83.80
2019-02-22T16:36:41.185Z,83.80
2019-02-22T16:39:09.870Z,84.00
2019-02-22T16:41:38.362Z,83.90
2019-02-22T16:44:06.813Z,84.00
2019-02-22T16:46:35.465Z,84.20
2019-02-22T16:49:04.041Z,84.50
2019-02-22T16:51:32.518Z,84.60
2019-02-22T16:54:00.987Z,84.50
2019-02-22T16:56:29.461Z,84.60
2019-02-22T16:58:57.949Z,84.80
2019-02-22T17:01:26.431Z,84.80
2019-02-22T17:03:54.903Z,85.00
2019-02-22T17:06:23.421Z,85.00
2019-02-22T17:08:51.925Z,85.10
2019-02-22T17:11:20.397Z,85.20
2019-02-22T17:13:48.873Z,85.30
2019-02-22T17:16:17.374Z,85.40
2019-02-22T17:18:45.849Z,85.60
2019-02-22T17:21:14.339Z,85.60
2019-02-22T17:23:42.863Z,85.60
2019-02-22T17:26:13.311Z,85.60
2019-02-22T17:28:41.836Z,85.60
2019-02-22T17:31:10.319Z,85.60
2019-02-22T17:33:38.857Z,86.40
2019-02-22T17:36:07.344Z,85.60
2019-02-22T17:38:35.815Z,86.10
2019-02-22T17:41:04.275Z,85.80
2019-02-22T17:43:32.764Z,85.80
2019-02-22T17:46:01.234Z,86.00
2019-02-22T17:48:29.719Z,86.10
2019-02-22T17:50:58.244Z,86.10
2019-02-22T17:53:26.732Z,86.30
2019-02-22T17:55:57.006Z,86.50
2019-02-22T17:58:25.492Z,86.80
2019-02-22T18:00:54.038Z,87.20
2019-02-22T18:03:22.520Z,87.50
2019-02-22T18:05:51.001Z,87.60
2019-02-22T18:08:19.486Z,87.70
2019-02-22T18:10:48.146Z,87.90
2019-02-22T18:13:16.734Z,89.00
2019-02-22T18:15:45.214Z,88.50
2019-02-22T18:18:13.684Z,88.60
2019-02-22T18:20:42.184Z,88.70
2019-02-22T18:23:10.666Z,88.80
2019-02-22T18:25:39.212Z,88.90
2019-02-22T18:28:07.687Z,88.50
2019-02-22T18:30:36.232Z,89.10
2019-02-22T18:33:04.831Z,89.10
2019-02-22T18:35:33.316Z,89.10
2019-02-22T18:38:01.779Z,89.10
2019-02-22T18:40:30.320Z,89.10
2019-02-22T18:42:58.790Z,89.10
2019-02-22T18:45:27.267Z,89.20
2019-02-22T18:47:55.733Z,89.40
2019-02-22T18:50:24.228Z,89.30
2019-02-22T18:52:52.709Z,89.30
2019-02-22T18:55:21.283Z,89.30
2019-02-22T18:57:49.759Z,89.40
2019-02-22T19:00:20.566Z,89.50
2019-02-22T19:02:49.666Z,89.60
2019-02-22T19:05:18.222Z,89.80
2019-02-22T19:07:46.692Z,89.80
2019-02-22T19:10:17.389Z,89.80
2019-02-22T19:12:45.861Z,90.00
2019-02-22T19:15:15.087Z,90.00
2019-02-22T19:17:43.553Z,90.10
2019-02-22T19:20:19.967Z,90.10
2019-02-22T19:22:48.467Z,90.20
2019-02-22T19:25:16.950Z,90.10
2019-02-22T19:27:46.515Z,90.10
2019-02-22T19:30:17.438Z,90.10
2019-02-22T19:32:45.929Z,90.20
2019-02-22T19:35:14.423Z,90.30
2019-02-22T19:37:42.931Z,90.30
2019-02-22T19:40:17.030Z,90.30
2019-02-22T19:42:45.513Z,90.40
2019-02-22T19:45:14.152Z,90.40
2019-02-22T19:47:42.728Z,90.50
2019-02-22T19:50:12.879Z,90.50
2019-02-22T19:52:41.619Z,90.60
2019-02-22T19:55:12.221Z,90.60
2019-02-22T19:57:40.790Z,90.60
2019-02-22T20:00:14.673Z,90.60
2019-02-22T20:02:43.142Z,90.70
2019-02-22T20:05:17.355Z,90.80
2019-02-22T20:07:45.866Z,90.80
2019-02-22T20:10:22.264Z,90.90
2019-02-22T20:12:50.755Z,91.00
2019-02-22T20:15:19.308Z,91.00
2019-02-22T20:17:53.776Z,91.00
2019-02-22T20:20:19.148Z,91.00
2019-02-22T20:22:48.074Z,91.10
2019-02-22T20:25:16.855Z,91.20
2019-02-22T20:27:45.349Z,91.20
2019-02-22T20:30:15.359Z,91.20
2019-02-22T20:32:43.862Z,91.20
2019-02-22T20:35:21.451Z,91.20
2019-02-22T20:37:53.053Z,91.30
2019-02-22T20:40:20.213Z,91.30
2019-02-22T20:42:48.739Z,91.30
2019-02-22T20:45:17.292Z,91.40
2019-02-22T20:47:45.795Z,91.30
2019-02-22T20:50:15.004Z,91.40
2019-02-22T20:52:43.482Z,91.40
2019-02-22T20:55:12.386Z,91.40
2019-02-22T20:57:40.885Z,91.40
2019-02-22T21:00:20.309Z,91.50
2019-02-22T21:02:48.793Z,91.40
2019-02-22T21:05:17.373Z,91.50
2019-02-22T21:07:45.858Z,91.50
2019-02-22T21:10:16.943Z,91.60
2019-02-22T21:12:45.422Z,91.60
2019-02-22T21:15:14.440Z,91.60
2019-02-22T21:17:42.932Z,91.60
2019-02-22T21:20:13.631Z,91.70
2019-02-22T21:22:42.145Z,91.60
2019-02-22T21:25:11.555Z,91.60
2019-02-22T21:27:40.045Z,91.70
2019-02-22T21:30:11.757Z,91.70
2019-02-22T21:32:40.269Z,92.00
2019-02-22T21:35:09.681Z,91.70
2019-02-22T21:37:39.192Z,91.70
2019-02-22T21:40:09.901Z,91.80
2019-02-22T21:42:38.413Z,91.80
2019-02-22T21:45:10.117Z,91.70
2019-02-22T21:47:38.625Z,91.70
2019-02-22T21:50:12.683Z,91.60
2019-02-22T21:52:41.233Z,91.50
2019-02-22T21:55:11.439Z,91.30
2019-02-22T21:57:40.086Z,91.10
2019-02-22T22:00:20.361Z,91.00
2019-02-22T22:02:48.851Z,90.90
2019-02-22T22:05:17.326Z,90.60
2019-02-22T22:07:45.815Z,90.50
2019-02-22T22:10:14.285Z,90.30
2019-02-22T22:12:42.775Z,90.30
2019-02-22T22:15:13.650Z,90.20
2019-02-22T22:17:42.151Z,90.10
2019-02-22T22:20:11.458Z,90.10
2019-02-22T22:22:40.000Z,90.00
2019-02-22T22:25:10.789Z,89.70
2019-02-22T22:27:39.260Z,89.60
2019-02-22T22:30:10.470Z,89.40
2019-02-22T22:32:38.968Z,89.40
2019-02-22T22:35:09.692Z,90.10
2019-02-22T22:37:39.024Z,89.40
2019-02-22T22:40:09.728Z,89.40
2019-02-22T22:42:38.676Z,89.20
2019-02-22T22:45:12.346Z,89.00
2019-02-22T22:47:40.826Z,88.90
2019-02-22T22:50:14.925Z,88.70
2019-02-22T22:52:43.412Z,88.60
2019-02-22T22:55:12.046Z,88.70
2019-02-22T22:57:40.518Z,88.80
2019-02-22T23:00:18.050Z,88.70
2019-02-22T23:02:46.528Z,88.60
2019-02-22T23:05:15.260Z,88.50
2019-02-22T23:07:43.742Z,88.60
2019-02-22T23:10:12.209Z,88.50
2019-02-22T23:12:40.684Z,88.70
2019-02-22T23:15:09.163Z,88.70
2019-02-22T23:17:37.633Z,88.60
2019-02-22T23:20:07.841Z,88.50
2019-02-22T23:22:36.839Z,88.40
2019-02-22T23:25:05.779Z,88.40
2019-02-22T23:27:34.263Z,88.50
2019-02-22T23:30:02.903Z,88.40
2019-02-22T23:32:31.387Z,88.30
2019-02-22T23:34:59.849Z,88.10
2019-02-22T23:37:28.392Z,88.00
2019-02-22T23:39:56.881Z,87.90
2019-02-22T23:42:25.805Z,88.00
2019-02-22T23:44:54.309Z,88.00
2019-02-22T23:47:23.103Z,88.00
2019-02-22T23:49:51.617Z,88.00
2019-02-22T23:52:20.097Z,88.00
2019-02-22T23:54:48.571Z,87.80
2019-02-22T23:57:17.051Z,87.50
2019-02-22T23:59:45.521Z,87.50
